Time;durP1;ratioP1;P1;durP2;ratioP2;P2;SDS_P1;SDS_P2;PMS_P1;PMS_P2;Temp;Humidity;BMP_temperature;BMP_pressure;BME280_temperature;BME280_humidity;BME280_pressure;Samples;Min_cycle;Max_cycle;Signal;HPM_P1;HPM_P2
2022/10/06 00:02:08;;;;;;;15.05;2.67;;;;;;;;;;5041758;28;20289;-62
2022/10/06 00:04:33;;;;;;;24.67;3.72;;;;;;;;;;5017259;28;20047;-62
2022/10/06 00:06:58;;;;;;;18.90;3.10;;;;;;;;;;5040795;28;20058;-62
2022/10/06 00:09:24;;;;;;;21.20;3.30;;;;;;;;;;5044217;28;20044;-61
2022/10/06 00:11:52;;;;;;;26.98;3.15;;;;;;;;;;5060052;27;20039;-61
2022/10/06 00:14:17;;;;;;;18.70;2.88;;;;;;;;;;5041858;28;20054;-63
2022/10/06 00:16:42;;;;;;;19.40;3.72;;;;;;;;;;5040775;28;20047;-63
2022/10/06 00:19:08;;;;;;;20.27;3.35;;;;;;;;;;5045344;28;20500;-63
2022/10/06 00:21:33;;;;;;;28.27;3.47;;;;;;;;;;5044958;28;20893;-63
2022/10/06 00:23:58;;;;;;;23.52;3.45;;;;;;;;;;5025240;28;20047;-62
2022/10/06 00:26:26;;;;;;;24.70;3.80;;;;;;;;;;5040141;28;20082;-62
2022/10/06 00:28:52;;;;;;;21.35;3.15;;;;;;;;;;5041004;28;20036;-62
2022/10/06 00:31:19;;;;;;;25.80;3.70;;;;;;;;;;5038668;28;20043;-62
2022/10/06 00:33:45;;;;;;;25.80;3.53;;;;;;;;;;5041706;28;20028;-62
2022/10/06 00:36:10;;;;;;;31.92;3.60;;;;;;;;;;5036499;28;20032;-63
2022/10/06 00:38:38;;;;;;;22.80;3.65;;;;;;;;;;5037742;28;20036;-63
2022/10/06 00:41:04;;;;;;;22.35;3.50;;;;;;;;;;5021084;28;20036;-62
2022/10/06 00:43:42;;;;;;;18.38;3.20;;;;;;;;;;5013825;28;20028;-62
2022/10/06 00:46:26;;;;;;;21.92;2.90;;;;;;;;;;5038094;28;20036;-62
2022/10/06 00:48:59;;;;;;;20.80;3.72;;;;;;;;;;5041240;28;20038;-63
2022/10/06 00:51:28;;;;;;;23.33;3.40;;;;;;;;;;5043363;28;20490;-61
2022/10/06 00:53:53;;;;;;;24.10;3.17;;;;;;;;;;5046503;28;20061;-62
2022/10/06 00:56:18;;;;;;;24.23;3.63;;;;;;;;;;5045307;28;20039;-62
2022/10/06 00:58:44;;;;;;;26.00;3.63;;;;;;;;;;5045480;28;20634;-62
2022/10/06 01:01:10;;;;;;;18.23;2.55;;;;;;;;;;5048293;28;20027;-63
2022/10/06 01:03:41;;;;;;;27.85;4.47;;;;;;;;;;5042622;28;20047;-61
2022/10/06 01:06:06;;;;;;;21.00;3.28;;;;;;;;;;5042215;28;20032;-61
2022/10/06 01:08:32;;;;;;;28.02;3.78;;;;;;;;;;5043341;28;20887;-61
2022/10/06 01:10:58;;;;;;;16.98;2.88;;;;;;;;;;5039180;28;20037;-62
2022/10/06 01:13:23;;;;;;;19.38;2.80;;;;;;;;;;5052537;28;20028;-63
2022/10/06 01:15:53;;;;;;;30.02;4.63;;;;;;;;;;5036176;28;20731;-62
2022/10/06 01:18:19;;;;;;;23.60;3.33;;;;;;;;;;5039580;28;20552;-62
2022/10/06 01:20:48;;;;;;;27.85;3.60;;;;;;;;;;5046236;28;20237;-62
2022/10/06 01:23:13;;;;;;;16.55;3.00;;;;;;;;;;5044520;28;20044;-61
2022/10/06 01:25:39;;;;;;;16.63;3.38;;;;;;;;;;5058990;28;20749;-62
2022/10/06 01:28:05;;;;;;;23.73;3.40;;;;;;;;;;5040649;28;20670;-62
2022/10/06 01:30:32;;;;;;;24.00;3.95;;;;;;;;;;5054741;28;20846;-63
2022/10/06 01:32:58;;;;;;;24.17;4.13;;;;;;;;;;5040260;28;20041;-63
2022/10/06 01:35:23;;;;;;;23.15;3.30;;;;;;;;;;5041177;28;20079;-61
2022/10/06 01:37:49;;;;;;;24.52;4.40;;;;;;;;;;5042798;28;20070;-62
2022/10/06 01:40:14;;;;;;;23.08;3.40;;;;;;;;;;5025685;28;20059;-62
2022/10/06 01:42:39;;;;;;;24.27;4.03;;;;;;;;;;5039801;28;20123;-62
2022/10/06 01:45:05;;;;;;;24.50;3.40;;;;;;;;;;5039631;28;20151;-62
2022/10/06 01:47:33;;;;;;;22.23;3.78;;;;;;;;;;5052568;28;20060;-62
2022/10/06 01:49:59;;;;;;;25.50;3.80;;;;;;;;;;5038593;28;20198;-62
2022/10/06 01:52:25;;;;;;;21.50;3.28;;;;;;;;;;5022415;28;20158;-61
2022/10/06 01:54:51;;;;;;;30.92;3.97;;;;;;;;;;5017048;28;20187;-62
2022/10/06 01:57:16;;;;;;;24.52;3.50;;;;;;;;;;5041404;28;20074;-62
2022/10/06 01:59:44;;;;;;;22.02;3.05;;;;;;;;;;5057905;28;20032;-62
2022/10/06 02:02:09;;;;;;;23.80;3.70;;;;;;;;;;5043152;28;20052;-62
2022/10/06 02:04:37;;;;;;;16.75;2.70;;;;;;;;;;5043079;28;20126;-60
2022/10/06 02:07:03;;;;;;;21.38;3.42;;;;;;;;;;5040694;28;20040;-62
2022/10/06 02:09:28;;;;;;;31.10;4.60;;;;;;;;;;5040946;28;20555;-61
2022/10/06 02:11:53;;;;;;;14.55;2.97;;;;;;;;;;5040514;28;20144;-61
2022/10/06 02:14:18;;;;;;;22.67;3.50;;;;;;;;;;5041003;28;20033;-61
2022/10/06 02:16:46;;;;;;;18.55;3.00;;;;;;;;;;5040572;28;20839;-61
2022/10/06 02:19:12;;;;;;;21.10;3.00;;;;;;;;;;5041228;28;20073;-62
2022/10/06 02:21:37;;;;;;;24.23;3.92;;;;;;;;;;5043050;28;20033;-61
2022/10/06 02:24:03;;;;;;;21.95;3.88;;;;;;;;;;5045529;28;20039;-62
2022/10/06 02:26:28;;;;;;;21.63;3.67;;;;;;;;;;5042960;28;20485;-61
2022/10/06 02:28:54;;;;;;;25.35;3.58;;;;;;;;;;5022021;28;20392;-61
2022/10/06 02:31:19;;;;;;;23.30;3.78;;;;;;;;;;5038143;28;20059;-62
2022/10/06 02:33:45;;;;;;;27.02;3.55;;;;;;;;;;5042995;28;20111;-62
2022/10/06 02:36:14;;;;;;;21.50;3.83;;;;;;;;;;5039910;28;20301;-62
2022/10/06 02:38:40;;;;;;;22.92;2.97;;;;;;;;;;5019038;28;22781;-61
2022/10/06 02:41:06;;;;;;;21.75;3.55;;;;;;;;;;5042727;28;20720;-62
2022/10/06 02:43:32;;;;;;;24.58;4.28;;;;;;;;;;5040612;28;20036;-60
2022/10/06 02:46:01;;;;;;;25.40;3.78;;;;;;;;;;5041831;28;20115;-61
2022/10/06 02:48:27;;;;;;;22.70;3.58;;;;;;;;;;5040484;28;20339;-61
2022/10/06 02:50:56;;;;;;;25.08;4.25;;;;;;;;;;5040075;28;20044;-61
2022/10/06 02:53:24;;;;;;;26.20;4.25;;;;;;;;;;5040534;28;20045;-61
2022/10/06 02:55:50;;;;;;;23.23;4.30;;;;;;;;;;5040163;28;21159;-61
2022/10/06 02:58:15;;;;;;;24.05;3.65;;;;;;;;;;5043446;28;20040;-61
2022/10/06 03:00:40;;;;;;;25.27;4.22;;;;;;;;;;5040580;28;20036;-61
2022/10/06 03:03:06;;;;;;;25.67;3.67;;;;;;;;;;5038531;28;20086;-60
2022/10/06 03:05:31;;;;;;;21.60;3.67;;;;;;;;;;5040971;28;20532;-61
2022/10/06 03:07:59;;;;;;;19.65;3.28;;;;;;;;;;5038928;28;20051;-61
2022/10/06 03:10:24;;;;;;;20.55;3.58;;;;;;;;;;5039468;28;20696;-61
2022/10/06 03:12:50;;;;;;;21.45;2.92;;;;;;;;;;5055131;28;20037;-61
2022/10/06 03:15:15;;;;;;;25.80;4.00;;;;;;;;;;5039969;28;20085;-62
2022/10/06 03:17:46;;;;;;;24.90;3.53;;;;;;;;;;5039623;28;20040;-61
2022/10/06 03:20:12;;;;;;;21.73;3.58;;;;;;;;;;5037793;28;20158;-61
2022/10/06 03:22:37;;;;;;;20.63;3.45;;;;;;;;;;5040980;28;20783;-60
2022/10/06 03:25:03;;;;;;;17.77;3.13;;;;;;;;;;5053356;28;20086;-60
2022/10/06 03:27:28;;;;;;;24.60;3.05;;;;;;;;;;5040078;28;20074;-60
2022/10/06 03:29:55;;;;;;;25.38;3.63;;;;;;;;;;5038452;28;20039;-62
2022/10/06 03:32:23;;;;;;;24.00;3.63;;;;;;;;;;5040141;28;20285;-61
2022/10/06 03:34:48;;;;;;;20.33;3.35;;;;;;;;;;5038109;28;20034;-61
2022/10/06 03:37:14;;;;;;;20.20;3.38;;;;;;;;;;5041088;28;20048;-61
2022/10/06 03:39:39;;;;;;;28.02;3.70;;;;;;;;;;5040176;28;20135;-61
2022/10/06 03:42:05;;;;;;;23.10;3.38;;;;;;;;;;5038729;28;21834;-61
2022/10/06 03:44:33;;;;;;;21.98;3.33;;;;;;;;;;5036619;28;20036;-60
2022/10/06 03:46:59;;;;;;;17.08;3.03;;;;;;;;;;5039893;28;20669;-61
2022/10/06 03:49:24;;;;;;;21.55;3.47;;;;;;;;;;5038158;28;20267;-61
2022/10/06 03:51:52;;;;;;;22.60;3.05;;;;;;;;;;5037693;28;20040;-61
2022/10/06 03:54:17;;;;;;;17.83;2.83;;;;;;;;;;5039120;28;20436;-63
2022/10/06 03:56:42;;;;;;;23.38;3.90;;;;;;;;;;5044080;28;20162;-63
2022/10/06 03:59:11;;;;;;;20.70;3.30;;;;;;;;;;5043248;28;20136;-60
2022/10/06 04:01:36;;;;;;;23.85;3.67;;;;;;;;;;5040208;28;20116;-62
2022/10/06 04:04:03;;;;;;;19.20;3.30;;;;;;;;;;5044667;28;20079;-63
2022/10/06 04:06:29;;;;;;;29.10;3.92;;;;;;;;;;5041442;28;20032;-62
2022/10/06 04:08:55;;;;;;;27.73;4.18;;;;;;;;;;5038875;28;20067;-60
2022/10/06 04:11:20;;;;;;;18.52;3.15;;;;;;;;;;5027278;28;20052;-61
2022/10/06 04:13:46;;;;;;;27.20;4.00;;;;;;;;;;5037690;28;20040;-61
2022/10/06 04:16:15;;;;;;;23.05;3.70;;;;;;;;;;5053185;28;20036;-60
2022/10/06 04:18:41;;;;;;;25.67;3.53;;;;;;;;;;5039612;28;20082;-61
2022/10/06 04:21:07;;;;;;;18.90;3.28;;;;;;;;;;5038225;28;20028;-61
2022/10/06 04:23:35;;;;;;;20.88;3.30;;;;;;;;;;5021799;28;20066;-60
2022/10/06 04:26:01;;;;;;;23.58;3.72;;;;;;;;;;5038399;28;20070;-61
2022/10/06 04:28:27;;;;;;;23.58;3.38;;;;;;;;;;5038800;28;20198;-61
2022/10/06 04:30:56;;;;;;;24.45;3.47;;;;;;;;;;5038666;28;20025;-61
2022/10/06 04:33:22;;;;;;;23.02;3.38;;;;;;;;;;5040091;28;20566;-61
2022/10/06 04:35:56;;;;;;;19.73;3.75;;;;;;;;;;5025734;28;20021;-61
2022/10/06 04:38:22;;;;;;;26.17;3.72;;;;;;;;;;5011419;28;20136;-62
2022/10/06 04:40:50;;;;;;;27.10;4.05;;;;;;;;;;5052481;28;20033;-61
2022/10/06 04:43:15;;;;;;;19.50;3.30;;;;;;;;;;5037773;28;20595;-61
2022/10/06 04:45:41;;;;;;;21.38;3.30;;;;;;;;;;5038443;28;20036;-61
2022/10/06 04:48:11;;;;;;;21.90;3.53;;;;;;;;;;5038288;28;20040;-62
2022/10/06 04:50:36;;;;;;;23.17;3.72;;;;;;;;;;5024441;28;20075;-62
2022/10/06 04:53:02;;;;;;;28.17;3.28;;;;;;;;;;5038134;28;20796;-61
2022/10/06 04:55:28;;;;;;;19.42;3.42;;;;;;;;;;5036881;28;20044;-60
2022/10/06 04:57:54;;;;;;;18.48;3.30;;;;;;;;;;5012834;28;20082;-62
2022/10/06 05:00:22;;;;;;;22.13;2.95;;;;;;;;;;5037164;28;20527;-61
2022/10/06 05:02:56;;;;;;;24.77;4.15;;;;;;;;;;5012960;28;20816;-61
2022/10/06 05:05:24;;;;;;;22.08;3.70;;;;;;;;;;5037061;28;20131;-60
2022/10/06 05:07:49;;;;;;;20.95;3.10;;;;;;;;;;5019109;28;20036;-60
2022/10/06 05:10:15;;;;;;;25.55;3.63;;;;;;;;;;5035718;28;20528;-61
2022/10/06 05:12:40;;;;;;;18.33;3.05;;;;;;;;;;5036682;28;21037;-61
2022/10/06 05:15:08;;;;;;;23.98;3.17;;;;;;;;;;5035894;28;20036;-60
2022/10/06 05:17:36;;;;;;;28.50;3.70;;;;;;;;;;5034122;28;20050;-61
2022/10/06 05:20:01;;;;;;;17.17;3.70;;;;;;;;;;5051084;28;20048;-61
2022/10/06 05:22:26;;;;;;;22.55;3.70;;;;;;;;;;5035810;28;20047;-61
2022/10/06 05:24:54;;;;;;;25.40;3.70;;;;;;;;;;5037002;28;20443;-62
2022/10/06 05:27:19;;;;;;;21.08;3.05;;;;;;;;;;5040607;28;20040;-63
2022/10/06 05:29:45;;;;;;;32.75;4.20;;;;;;;;;;5040178;28;20098;-61
2022/10/06 05:32:11;;;;;;;24.40;3.90;;;;;;;;;;5036284;28;20028;-62
2022/10/06 05:34:36;;;;;;;20.52;3.85;;;;;;;;;;5037698;28;20036;-61
2022/10/06 05:37:01;;;;;;;26.55;3.95;;;;;;;;;;5036685;28;20140;-60
2022/10/06 05:39:26;;;;;;;25.98;3.53;;;;;;;;;;5039793;28;20028;-62
2022/10/06 05:41:52;;;;;;;29.77;4.15;;;;;;;;;;5040255;28;20071;-61
2022/10/06 05:44:17;;;;;;;27.92;3.40;;;;;;;;;;5037609;28;20036;-62
2022/10/06 05:46:42;;;;;;;23.20;3.08;;;;;;;;;;5010878;28;20051;-62
2022/10/06 05:49:11;;;;;;;20.98;3.90;;;;;;;;;;5038981;28;20040;-62
2022/10/06 05:51:39;;;;;;;29.60;3.97;;;;;;;;;;5034631;28;20151;-61
2022/10/06 05:54:05;;;;;;;25.90;4.35;;;;;;;;;;5029210;28;20402;-61
2022/10/06 05:56:32;;;;;;;23.83;3.47;;;;;;;;;;5018270;28;20032;-62
2022/10/06 05:58:58;;;;;;;31.23;4.10;;;;;;;;;;5020141;28;20037;-61
2022/10/06 06:01:24;;;;;;;22.67;2.90;;;;;;;;;;5018862;28;20308;-61
2022/10/06 06:03:51;;;;;;;17.20;2.83;;;;;;;;;;5019481;28;20036;-61
2022/10/06 06:06:16;;;;;;;27.77;3.42;;;;;;;;;;5018089;28;20126;-62
2022/10/06 06:08:42;;;;;;;17.48;3.10;;;;;;;;;;5018671;28;20036;-61
2022/10/06 06:11:08;;;;;;;23.55;3.45;;;;;;;;;;5020154;28;20037;-62
2022/10/06 06:13:34;;;;;;;30.98;4.00;;;;;;;;;;5023945;28;20266;-62
2022/10/06 06:15:59;;;;;;;26.17;3.30;;;;;;;;;;5018519;28;20032;-61
2022/10/06 06:18:35;;;;;;;17.80;2.90;;;;;;;;;;5020139;28;20055;-62
2022/10/06 06:21:04;;;;;;;27.35;3.80;;;;;;;;;;5018748;28;20102;-60
2022/10/06 06:23:31;;;;;;;25.38;3.58;;;;;;;;;;5021916;28;20098;-62
2022/10/06 06:26:00;;;;;;;23.95;3.83;;;;;;;;;;5027980;28;20033;-62
2022/10/06 06:28:28;;;;;;;24.92;3.70;;;;;;;;;;5020839;28;20044;-61
2022/10/06 06:30:58;;;;;;;16.30;2.97;;;;;;;;;;5019466;28;20067;-61
2022/10/06 06:33:23;;;;;;;24.15;2.95;;;;;;;;;;5019013;28;20725;-61
2022/10/06 06:35:48;;;;;;;20.25;3.00;;;;;;;;;;5018895;28;20052;-61
2022/10/06 06:38:14;;;;;;;25.05;4.60;;;;;;;;;;5032881;28;20893;-61
2022/10/06 06:40:41;;;;;;;17.48;2.75;;;;;;;;;;5018098;28;23050;-61
2022/10/06 06:43:06;;;;;;;25.58;3.72;;;;;;;;;;5034175;28;20068;-60
2022/10/06 06:45:32;;;;;;;20.88;3.70;;;;;;;;;;5019251;28;20033;-60
2022/10/06 06:47:57;;;;;;;23.23;3.33;;;;;;;;;;5048813;28;20640;-61
2022/10/06 06:50:24;;;;;;;18.08;2.60;;;;;;;;;;5025550;28;20049;-60
2022/10/06 06:52:49;;;;;;;21.67;3.22;;;;;;;;;;5038732;28;20761;-61
2022/10/06 06:55:15;;;;;;;20.10;2.72;;;;;;;;;;5037660;28;20032;-62
2022/10/06 06:57:41;;;;;;;25.05;3.30;;;;;;;;;;5038397;28;22581;-62
2022/10/06 07:00:07;;;;;;;24.90;3.00;;;;;;;;;;5041406;28;20133;-62
2022/10/06 07:02:33;;;;;;;20.15;2.53;;;;;;;;;;5035421;28;20795;-61
2022/10/06 07:04:59;;;;;;;22.23;3.08;;;;;;;;;;5040478;28;20141;-61
2022/10/06 07:07:24;;;;;;;16.65;2.63;;;;;;;;;;5026684;28;20109;-62
2022/10/06 07:09:49;;;;;;;24.27;2.95;;;;;;;;;;5019957;28;20036;-64
2022/10/06 07:12:15;;;;;;;24.98;3.35;;;;;;;;;;5035465;28;20047;-63
2022/10/06 07:25:05;;;;;;;20.00;2.80;;;;;;;;;;5033280;28;20647;-62
2022/10/06 07:25:40;;;;;;;21.38;2.78;;;;;;;;;;5036427;28;20356;-62
2022/10/06 07:28:06;;;;;;;24.65;3.42;;;;;;;;;;5029950;28;20748;-61
2022/10/06 07:30:32;;;;;;;20.98;3.00;;;;;;;;;;5039252;28;20133;-61
2022/10/06 07:32:57;;;;;;;16.13;2.58;;;;;;;;;;5037256;28;20038;-62
2022/10/06 07:35:26;;;;;;;23.98;3.45;;;;;;;;;;5035335;28;20055;-61
2022/10/06 07:37:56;;;;;;;23.92;3.35;;;;;;;;;;5036871;28;20048;-63
2022/10/06 07:40:22;;;;;;;23.13;3.00;;;;;;;;;;5036766;28;20539;-61
2022/10/06 07:42:47;;;;;;;15.75;2.50;;;;;;;;;;5036883;28;20135;-61
2022/10/06 07:45:40;;;;;;;21.25;3.35;;;;;;;;;;5035405;28;20033;-62
2022/10/06 07:48:16;;;;;;;23.83;3.28;;;;;;;;;;5035491;28;20656;-60
2022/10/06 07:50:43;;;;;;;23.73;3.05;;;;;;;;;;5036196;28;20696;-61
2022/10/06 07:53:09;;;;;;;20.73;2.90;;;;;;;;;;5034810;28;20043;-62
2022/10/06 07:55:38;;;;;;;18.85;3.05;;;;;;;;;;5049299;28;20038;-61
2022/10/06 07:58:10;;;;;;;24.48;2.85;;;;;;;;;;5028345;28;20112;-62
2022/10/06 08:00:35;;;;;;;;;;;;;;;;;;5036386;28;20708;-62
2022/10/06 08:03:00;;;;;;;21.17;2.53;;;;;;;;;;5038521;28;19923;-61
2022/10/06 08:05:26;;;;;;;24.13;3.97;;;;;;;;;;5036614;28;20271;-61
2022/10/06 08:07:55;;;;;;;25.67;3.20;;;;;;;;;;5038313;28;20036;-61
2022/10/06 08:10:20;;;;;;;21.42;2.95;;;;;;;;;;5018772;28;20885;-61
2022/10/06 08:12:45;;;;;;;18.75;2.95;;;;;;;;;;5012571;28;20040;-60
2022/10/06 08:15:13;;;;;;;15.32;2.67;;;;;;;;;;5022830;28;20119;-61
2022/10/06 08:17:38;;;;;;;18.80;3.30;;;;;;;;;;5037611;28;20055;-62
2022/10/06 08:20:08;;;;;;;16.17;2.90;;;;;;;;;;5036123;28;20177;-61
2022/10/06 08:22:34;;;;;;;19.75;2.92;;;;;;;;;;5036749;28;20043;-61
2022/10/06 08:25:00;;;;;;;19.20;2.67;;;;;;;;;;5038009;28;20851;-61
2022/10/06 08:27:29;;;;;;;14.20;2.42;;;;;;;;;;5038499;28;20039;-61
2022/10/06 08:29:55;;;;;;;21.42;3.75;;;;;;;;;;5037856;28;20051;-61
2022/10/06 08:32:20;;;;;;;11.75;2.33;;;;;;;;;;5037921;28;20063;-61
2022/10/06 08:34:46;;;;;;;18.25;3.08;;;;;;;;;;5012487;28;20024;-61
2022/10/06 08:37:12;;;;;;;12.10;2.15;;;;;;;;;;5037162;28;20048;-61
2022/10/06 08:39:37;;;;;;;16.60;2.45;;;;;;;;;;5039927;28;20074;-61
2022/10/06 08:42:03;;;;;;;17.13;2.30;;;;;;;;;;5038242;28;20036;-61
2022/10/06 08:44:31;;;;;;;18.73;2.88;;;;;;;;;;5038178;28;20101;-61
2022/10/06 08:47:00;;;;;;;16.48;2.70;;;;;;;;;;5054695;28;20036;-59
2022/10/06 08:49:47;;;;;;;16.88;2.38;;;;;;;;;;5014748;28;20438;-62
2022/10/06 08:52:21;;;;;;;25.25;3.20;;;;;;;;;;5015947;28;20060;-61
2022/10/06 08:55:04;;;;;;;21.02;3.05;;;;;;;;;;5014951;28;21223;-61
2022/10/06 08:57:42;;;;;;;15.43;2.50;;;;;;;;;;5010958;28;20285;-63
2022/10/06 09:00:12;;;;;;;14.75;2.50;;;;;;;;;;5013436;28;22324;-60
2022/10/06 09:02:41;;;;;;;13.18;2.22;;;;;;;;;;5014989;28;20142;-62
2022/10/06 09:05:10;;;;;;;21.27;3.13;;;;;;;;;;5013611;28;20200;-62
2022/10/06 09:07:35;;;;;;;14.52;2.47;;;;;;;;;;5009334;28;22455;-63
2022/10/06 09:10:18;;;;;;;16.58;2.95;;;;;;;;;;4998619;28;20090;-62
2022/10/06 09:12:52;;;;;;;25.75;3.20;;;;;;;;;;5015398;28;20044;-62
2022/10/06 09:15:24;;;;;;;17.40;3.20;;;;;;;;;;5015515;28;20249;-63
2022/10/06 09:17:53;;;;;;;19.02;2.95;;;;;;;;;;5016088;28;20119;-63
2022/10/06 09:20:34;;;;;;;23.67;3.30;;;;;;;;;;5021803;28;20545;-63
2022/10/06 09:23:03;;;;;;;30.27;3.50;;;;;;;;;;5037969;28;20071;-64
2022/10/06 09:25:28;;;;;;;20.85;2.70;;;;;;;;;;5039142;28;20033;-62
2022/10/06 09:27:56;;;;;;;18.83;2.92;;;;;;;;;;5039613;28;20067;-61
2022/10/06 09:30:23;;;;;;;20.75;2.58;;;;;;;;;;5025660;28;20110;-61
2022/10/06 09:33:02;;;;;;;20.60;2.60;;;;;;;;;;5039639;28;20119;-61
2022/10/06 09:35:31;;;;;;;26.13;3.28;;;;;;;;;;5038783;28;20033;-61
2022/10/06 09:38:03;;;;;;;19.63;2.88;;;;;;;;;;5039492;28;20039;-61
2022/10/06 09:40:40;;;;;;;17.63;2.67;;;;;;;;;;5014186;28;20043;-62
2022/10/06 09:43:18;;;;;;;16.88;2.45;;;;;;;;;;5039708;28;20024;-62
2022/10/06 09:45:43;;;;;;;30.10;3.97;;;;;;;;;;5053975;28;20038;-62
2022/10/06 09:48:19;;;;;;;18.48;2.33;;;;;;;;;;5040120;28;20028;-62
2022/10/06 09:51:04;;;;;;;19.08;2.50;;;;;;;;;;5039689;28;20047;-62
2022/10/06 09:53:30;;;;;;;21.60;2.70;;;;;;;;;;5039976;28;20966;-62
2022/10/06 09:55:55;;;;;;;18.02;2.60;;;;;;;;;;5013721;28;20043;-63
2022/10/06 09:58:21;;;;;;;27.17;3.50;;;;;;;;;;5039561;28;20048;-62
2022/10/06 10:00:53;;;;;;;25.98;2.97;;;;;;;;;;5039430;28;20029;-63
2022/10/06 10:03:19;;;;;;;24.83;3.13;;;;;;;;;;5030547;28;20043;-62
2022/10/06 10:05:46;;;;;;;21.38;2.60;;;;;;;;;;5039872;28;20047;-62
2022/10/06 10:08:11;;;;;;;21.70;3.13;;;;;;;;;;5039342;28;20032;-61
2022/10/06 10:10:37;;;;;;;28.67;2.90;;;;;;;;;;5039691;28;20040;-62
2022/10/06 10:13:18;;;;;;;22.00;2.70;;;;;;;;;;5042556;28;20035;-62
2022/10/06 10:15:54;;;;;;;26.60;2.95;;;;;;;;;;5041266;28;20049;-62
2022/10/06 10:18:25;;;;;;;28.00;3.47;;;;;;;;;;5029230;28;20040;-62
2022/10/06 10:20:50;;;;;;;27.13;3.63;;;;;;;;;;5042127;28;20116;-62
2022/10/06 10:23:24;;;;;;;30.83;3.97;;;;;;;;;;5041763;28;21084;-61
2022/10/06 10:26:02;;;;;;;23.67;2.67;;;;;;;;;;5041043;28;20208;-62
2022/10/06 10:28:51;;;;;;;31.08;3.10;;;;;;;;;;5042058;28;20029;-62
2022/10/06 10:31:21;;;;;;;29.27;3.55;;;;;;;;;;5042525;28;20051;-64
2022/10/06 10:33:55;;;;;;;42.63;4.32;;;;;;;;;;5042181;28;20871;-66
2022/10/06 10:36:22;;;;;;;22.55;3.10;;;;;;;;;;5041959;28;20145;-63
2022/10/06 10:38:51;;;;;;;34.08;3.75;;;;;;;;;;5042490;28;20161;-63
2022/10/06 10:41:24;;;;;;;27.58;3.80;;;;;;;;;;5041969;28;20036;-63
2022/10/06 10:43:55;;;;;;;27.75;3.38;;;;;;;;;;5034220;28;20900;-64
2022/10/06 10:46:50;;;;;;;31.27;3.15;;;;;;;;;;5022380;28;20040;-62
2022/10/06 10:49:18;;;;;;;24.52;3.28;;;;;;;;;;5022032;28;20213;-64
2022/10/06 10:51:44;;;;;;;28.23;3.15;;;;;;;;;;5040641;28;20849;-64
2022/10/06 10:54:16;;;;;;;27.08;3.78;;;;;;;;;;5042429;28;20035;-64
2022/10/06 10:56:42;;;;;;;31.35;3.63;;;;;;;;;;5040987;28;20704;-66
2022/10/06 10:59:16;;;;;;;33.60;3.70;;;;;;;;;;5039475;28;20032;-65
2022/10/06 11:01:50;;;;;;;28.42;3.72;;;;;;;;;;5041777;28;20036;-65
2022/10/06 11:04:16;;;;;;;32.03;3.55;;;;;;;;;;5040795;28;20024;-65
2022/10/06 11:06:47;;;;;;;30.85;3.15;;;;;;;;;;5023345;28;20056;-65
2022/10/06 11:09:17;;;;;;;22.50;3.38;;;;;;;;;;5041361;28;20032;-63
2022/10/06 11:12:00;;;;;;;31.80;3.72;;;;;;;;;;5041680;28;20106;-64
2022/10/06 11:14:44;;;;;;;28.38;3.75;;;;;;;;;;5040603;28;20028;-63
2022/10/06 11:17:28;;;;;;;34.13;4.38;;;;;;;;;;5040266;28;20050;-64
2022/10/06 11:20:00;;;;;;;28.38;3.78;;;;;;;;;;5041574;28;20033;-63
2022/10/06 11:22:31;;;;;;;28.58;3.83;;;;;;;;;;5038578;28;20141;-62
2022/10/06 11:25:03;;;;;;;28.55;3.15;;;;;;;;;;5036469;28;20033;-63
2022/10/06 11:27:28;;;;;;;32.97;3.90;;;;;;;;;;5037781;28;20033;-62
2022/10/06 11:30:00;;;;;;;38.92;4.25;;;;;;;;;;5037428;28;20047;-64
2022/10/06 11:32:45;;;;;;;34.03;4.10;;;;;;;;;;5040341;28;20032;-64
2022/10/06 11:35:20;;;;;;;36.38;3.63;;;;;;;;;;5054355;28;21007;-63
2022/10/06 11:37:49;;;;;;;24.00;3.97;;;;;;;;;;5031952;28;20184;-63
2022/10/06 11:40:18;;;;;;;31.30;3.58;;;;;;;;;;5036540;28;20058;-64
2022/10/06 11:42:49;;;;;;;29.08;3.92;;;;;;;;;;5035364;28;20704;-61
2022/10/06 11:45:15;;;;;;;25.88;3.40;;;;;;;;;;5036298;28;20586;-63
2022/10/06 11:47:53;;;;;;;37.05;4.72;;;;;;;;;;5011296;28;20052;-63
2022/10/06 11:50:38;;;;;;;30.88;3.85;;;;;;;;;;5036271;28;20599;-65
2022/10/06 11:53:21;;;;;;;35.42;3.63;;;;;;;;;;5035719;28;20779;-63
2022/10/06 11:55:47;;;;;;;42.72;4.35;;;;;;;;;;5058307;28;20036;-67
2022/10/06 11:58:15;;;;;;;26.80;3.38;;;;;;;;;;5056485;28;20118;-67
2022/10/06 12:00:44;;;;;;;34.42;3.92;;;;;;;;;;5028175;28;20451;-66
2022/10/06 12:03:28;;;;;;;34.17;4.25;;;;;;;;;;5042301;28;20047;-65
2022/10/06 12:05:53;;;;;;;34.70;3.97;;;;;;;;;;5037154;28;20028;-68
2022/10/06 12:08:33;;;;;;;28.10;3.92;;;;;;;;;;5026908;28;20046;-67
2022/10/06 12:10:58;;;;;;;31.48;4.10;;;;;;;;;;5023269;28;20044;-63
2022/10/06 12:13:24;;;;;;;21.00;3.00;;;;;;;;;;5041674;28;20036;-65
2022/10/06 12:15:52;;;;;;;32.13;3.63;;;;;;;;;;5046107;28;20562;-64
2022/10/06 12:18:18;;;;;;;45.67;4.22;;;;;;;;;;5041645;28;20076;-66
2022/10/06 12:20:52;;;;;;;31.80;4.00;;;;;;;;;;5036737;28;20036;-68
2022/10/06 12:23:33;;;;;;;26.00;3.30;;;;;;;;;;5042770;28;20036;-64
2022/10/06 12:26:03;;;;;;;38.27;4.60;;;;;;;;;;5042770;28;20028;-64
2022/10/06 12:28:43;;;;;;;54.22;5.50;;;;;;;;;;5042017;28;20035;-65
2022/10/06 12:31:23;;;;;;;31.25;3.33;;;;;;;;;;5041036;28;20048;-64
2022/10/06 12:33:49;;;;;;;31.38;4.55;;;;;;;;;;5043520;28;20048;-65
2022/10/06 12:36:19;;;;;;;33.90;3.83;;;;;;;;;;5040460;28;20897;-64
2022/10/06 12:39:05;;;;;;;35.88;3.90;;;;;;;;;;5041763;28;20047;-64
2022/10/06 12:41:52;;;;;;;38.35;3.95;;;;;;;;;;5028989;28;20059;-65
2022/10/06 12:44:25;;;;;;;46.47;4.45;;;;;;;;;;5039866;28;20044;-66
2022/10/06 12:46:52;;;;;;;38.63;3.80;;;;;;;;;;5039294;28;20669;-63
2022/10/06 12:49:30;;;;;;;36.10;3.65;;;;;;;;;;5039757;28;20467;-66
2022/10/06 12:52:04;;;;;;;22.30;2.95;;;;;;;;;;5042416;28;20040;-65
2022/10/06 12:54:32;;;;;;;30.63;3.38;;;;;;;;;;5041560;28;20047;-65
2022/10/06 12:57:00;;;;;;;32.00;4.45;;;;;;;;;;5042588;28;20691;-64
2022/10/06 12:59:33;;;;;;;31.08;3.92;;;;;;;;;;5041009;28;20173;-64
2022/10/06 13:02:06;;;;;;;34.25;4.60;;;;;;;;;;5040356;28;20028;-64
2022/10/06 13:04:39;;;;;;;34.85;3.83;;;;;;;;;;5039917;28;20112;-64
2022/10/06 13:07:16;;;;;;;26.05;3.22;;;;;;;;;;5038775;28;20115;-65
2022/10/06 13:09:42;;;;;;;37.28;4.03;;;;;;;;;;5033849;28;20039;-64
2022/10/06 13:12:23;;;;;;;29.13;3.92;;;;;;;;;;5034553;28;20036;-65
2022/10/06 13:15:07;;;;;;;28.20;3.40;;;;;;;;;;5034828;28;20028;-64
2022/10/06 13:17:33;;;;;;;34.72;3.80;;;;;;;;;;5035000;28;20048;-63
2022/10/06 13:19:58;;;;;;;34.72;4.85;;;;;;;;;;5033307;28;20036;-63
2022/10/06 13:22:24;;;;;;;31.65;4.80;;;;;;;;;;5033916;28;20028;-64
2022/10/06 13:24:57;;;;;;;37.28;4.25;;;;;;;;;;5034536;28;20697;-64
2022/10/06 13:27:23;;;;;;;38.05;4.00;;;;;;;;;;5034527;28;20451;-64
2022/10/06 13:29:48;;;;;;;28.52;3.38;;;;;;;;;;5034297;28;20306;-63
2022/10/06 13:32:17;;;;;;;24.27;3.72;;;;;;;;;;5033853;28;20036;-64
2022/10/06 13:34:42;;;;;;;29.52;3.58;;;;;;;;;;5033780;28;20627;-64
2022/10/06 13:37:12;;;;;;;35.00;3.70;;;;;;;;;;5034044;28;20043;-63
2022/10/06 13:39:38;;;;;;;36.83;4.05;;;;;;;;;;5034309;28;20834;-64
2022/10/06 13:42:08;;;;;;;23.40;3.13;;;;;;;;;;5034915;28;20135;-64
2022/10/06 13:44:36;;;;;;;34.65;3.55;;;;;;;;;;5037233;28;20078;-65
2022/10/06 13:47:13;;;;;;;35.72;4.18;;;;;;;;;;5040142;28;20036;-66
2022/10/06 13:49:41;;;;;;;26.05;3.38;;;;;;;;;;5024520;28;20035;-64
2022/10/06 13:52:33;;;;;;;29.88;3.60;;;;;;;;;;5039296;28;20032;-64
2022/10/06 13:55:02;;;;;;;33.72;4.38;;;;;;;;;;5038717;28;22463;-64
2022/10/06 13:57:35;;;;;;;29.33;3.10;;;;;;;;;;5042440;28;20683;-63
2022/10/06 14:00:22;;;;;;;25.38;3.80;;;;;;;;;;5042951;28;20330;-64
2022/10/06 14:02:55;;;;;;;30.52;3.65;;;;;;;;;;5027292;28;20032;-64
2022/10/06 14:05:21;;;;;;;26.88;3.70;;;;;;;;;;5033305;28;21294;-65
2022/10/06 14:07:48;;;;;;;28.65;3.00;;;;;;;;;;5041018;28;20039;-64
2022/10/06 14:10:18;;;;;;;21.17;2.88;;;;;;;;;;5041019;28;20341;-63
2022/10/06 14:12:44;;;;;;;36.85;3.72;;;;;;;;;;5039884;28;20653;-65
2022/10/06 14:15:17;;;;;;;32.97;3.72;;;;;;;;;;5041936;28;20032;-62
2022/10/06 14:17:43;;;;;;;31.02;3.22;;;;;;;;;;5040876;28;20047;-66
2022/10/06 14:20:27;;;;;;;26.42;3.70;;;;;;;;;;5024058;28;20090;-65
2022/10/06 14:22:53;;;;;;;26.60;3.15;;;;;;;;;;5046858;28;20047;-64
2022/10/06 14:25:18;;;;;;;27.05;3.55;;;;;;;;;;5041383;28;20257;-66
2022/10/06 14:27:44;;;;;;;21.88;3.15;;;;;;;;;;5040707;28;20107;-66
2022/10/06 14:30:10;;;;;;;17.98;3.30;;;;;;;;;;5042038;28;20037;-64
2022/10/06 14:32:37;;;;;;;27.80;3.60;;;;;;;;;;5029278;28;20036;-68
2022/10/06 14:35:02;;;;;;;31.70;3.95;;;;;;;;;;5039427;28;20931;-63
2022/10/06 14:37:32;;;;;;;21.13;3.30;;;;;;;;;;5040008;28;20048;-65
2022/10/06 14:39:57;;;;;;;29.45;3.17;;;;;;;;;;5027960;28;20036;-65
2022/10/06 14:42:23;;;;;;;27.27;3.83;;;;;;;;;;5040470;28;20201;-65
2022/10/06 14:44:48;;;;;;;20.58;2.80;;;;;;;;;;5040399;28;20070;-66
2022/10/06 14:47:14;;;;;;;19.33;2.92;;;;;;;;;;5040400;28;20078;-64
2022/10/06 14:49:39;;;;;;;26.63;2.90;;;;;;;;;;5041276;28;20121;-63